createdAt,value
2023-04-04T00:00:20.758Z,99.90
2023-04-04T00:05:23.160Z,99.90
2023-04-04T00:10:24.938Z,99.90
2023-04-04T00:15:27.445Z,99.90
2023-04-04T00:20:29.774Z,99.90
2023-04-04T00:25:31.559Z,99.90
2023-04-04T00:30:35.025Z,99.90
2023-04-04T00:35:37.089Z,99.90
2023-04-04T00:40:48.646Z,99.90
2023-04-04T00:45:53.757Z,99.90
2023-04-04T00:50:55.548Z,99.90
2023-04-04T00:55:57.331Z,99.90
2023-04-04T01:01:01.479Z,99.90
2023-04-04T01:06:03.935Z,99.90
2023-04-04T01:11:06.600Z,99.90
2023-04-04T01:16:08.433Z,99.90
2023-04-04T01:21:17.210Z,99.90
2023-04-04T01:26:22.336Z,99.90
2023-04-04T01:31:43.989Z,99.90
2023-04-04T01:37:03.175Z,99.90
2023-04-04T01:42:07.623Z,99.90
2023-04-04T01:47:09.413Z,99.90
2023-04-04T01:52:11.463Z,99.90
2023-04-04T01:57:13.692Z,99.90
2023-04-04T02:02:15.673Z,99.90
2023-04-04T02:07:17.411Z,99.90
2023-04-04T02:12:19.155Z,99.90
2023-04-04T02:17:20.909Z,99.90
2023-04-04T02:22:22.686Z,99.90
2023-04-04T02:27:24.634Z,99.90
2023-04-04T02:32:27.431Z,99.90
2023-04-04T02:37:29.448Z,99.90
2023-04-04T02:42:31.581Z,99.90
2023-04-04T02:47:33.325Z,99.90
2023-04-04T02:52:35.288Z,99.90
2023-04-04T02:57:37.214Z,99.90
2023-04-04T03:02:39.137Z,99.90
2023-04-04T03:07:41.178Z,99.90
2023-04-04T03:12:42.944Z,99.90
2023-04-04T03:17:45.333Z,99.90
2023-04-04T03:22:47.278Z,99.90
2023-04-04T03:27:49.031Z,99.90
2023-04-04T03:32:51.341Z,99.90
2023-04-04T03:37:54.753Z,99.90
2023-04-04T03:42:56.611Z,99.90
2023-04-04T03:47:58.654Z,99.90
2023-04-04T03:53:00.681Z,99.90
2023-04-04T03:58:02.576Z,99.90
2023-04-04T04:03:04.692Z,99.90
2023-04-04T04:08:06.704Z,99.90
2023-04-04T04:13:08.648Z,99.90
2023-04-04T04:18:11.653Z,99.90
2023-04-04T04:23:13.505Z,99.90
2023-04-04T04:28:15.321Z,99.90
2023-04-04T04:33:17.352Z,99.90
2023-04-04T04:38:19.263Z,99.90
2023-04-04T04:43:21.272Z,99.90
2023-04-04T04:48:23.205Z,99.90
2023-04-04T04:53:25.029Z,99.90
2023-04-04T04:58:28.620Z,99.90
2023-04-04T05:03:30.540Z,99.90
2023-04-04T05:08:32.522Z,99.90
2023-04-04T05:13:34.795Z,99.90
2023-04-04T05:18:36.832Z,99.90
2023-04-04T05:23:38.679Z,99.90
2023-04-04T05:28:41.193Z,99.90
2023-04-04T05:33:43.006Z,99.90
2023-04-04T05:38:44.761Z,99.90
2023-04-04T05:43:46.544Z,99.90
2023-04-04T05:48:48.851Z,99.90
2023-04-04T05:53:50.726Z,99.90
2023-04-04T05:58:53.189Z,99.90
2023-04-04T06:03:56.264Z,99.90
2023-04-04T06:08:58.042Z,99.90
2023-04-04T06:13:59.765Z,99.90
2023-04-04T06:19:01.506Z,99.90
2023-04-04T06:24:03.370Z,99.90
2023-04-04T06:29:05.167Z,99.90
2023-04-04T06:34:06.897Z,99.90
2023-04-04T06:39:08.781Z,99.90
2023-04-04T06:44:10.819Z,99.90
2023-04-04T06:49:12.741Z,99.90
2023-04-04T06:54:14.814Z,99.90
2023-04-04T06:59:16.728Z,99.90
2023-04-04T07:04:21.631Z,99.90
2023-04-04T07:09:29.286Z,99.90
2023-04-04T07:14:31.569Z,99.90
2023-04-04T07:19:33.286Z,99.90
2023-04-04T07:24:35.117Z,99.90
2023-04-04T07:29:37.080Z,99.90
2023-04-04T07:34:38.894Z,99.90
2023-04-04T07:39:40.685Z,99.90
2023-04-04T07:44:42.441Z,99.90
2023-04-04T07:49:44.856Z,99.90
2023-04-04T07:54:47.755Z,99.90
2023-04-04T07:59:49.494Z,99.90
2023-04-04T08:04:51.521Z,99.90
2023-04-04T08:09:53.312Z,99.90
2023-04-04T08:14:55.047Z,99.90
2023-04-04T08:19:57.058Z,99.90
2023-04-04T08:24:58.894Z,99.90
2023-04-04T08:30:00.782Z,99.90
2023-04-04T08:35:03.524Z,99.90
2023-04-04T08:40:06.719Z,99.90
2023-04-04T08:45:12.103Z,99.90
2023-04-04T08:50:13.933Z,99.90
2023-04-04T08:55:15.995Z,99.90
2023-04-04T09:00:21.439Z,99.90
2023-04-04T09:05:23.972Z,99.90
2023-04-04T09:10:25.981Z,99.90
2023-04-04T09:15:28.087Z,99.90
2023-04-04T09:20:42.808Z,99.90
2023-04-04T09:30:54.395Z,99.90
2023-04-04T09:35:59.277Z,99.90
2023-04-04T09:41:02.100Z,99.90
2023-04-04T09:46:04.278Z,99.90
2023-04-04T09:51:07.163Z,99.90
2023-04-04T09:56:09.150Z,99.90
2023-04-04T10:01:12.871Z,99.90
2023-04-04T10:06:15.390Z,99.90
2023-04-04T10:11:34.275Z,99.90
2023-04-04T10:16:37.966Z,99.90
2023-04-04T10:21:40.536Z,99.90
2023-04-04T10:26:42.415Z,99.90
2023-04-04T10:31:46.613Z,99.90
2023-04-04T10:36:54.978Z,99.90
2023-04-04T10:41:58.684Z,99.90
2023-04-04T10:47:09.697Z,99.90
2023-04-04T10:52:13.844Z,99.90
2023-04-04T10:57:16.952Z,99.90
2023-04-04T11:02:38.713Z,99.90
2023-04-04T11:07:40.951Z,99.90
2023-04-04T11:12:46.323Z,99.90
2023-04-04T11:18:10.243Z,99.90
2023-04-04T11:23:23.431Z,99.90
2023-04-04T11:28:45.233Z,99.90
2023-04-04T11:34:09.867Z,99.90
2023-04-04T11:39:15.896Z,99.90
2023-04-04T11:44:18.152Z,99.90
2023-04-04T11:49:20.488Z,99.90
2023-04-04T11:54:22.359Z,99.90
2023-04-04T11:59:24.470Z,99.90
2023-04-04T12:04:26.484Z,99.90
2023-04-04T12:09:29.813Z,99.90
2023-04-04T12:14:33.083Z,99.90
2023-04-04T12:19:40.322Z,99.90
2023-04-04T12:24:42.138Z,99.90
2023-04-04T12:29:45.624Z,99.90
2023-04-04T12:34:49.958Z,99.90
2023-04-04T12:39:53.002Z,99.90
2023-04-04T12:44:55.434Z,99.90
2023-04-04T12:49:57.416Z,99.90
2023-04-04T12:55:08.368Z,99.90
2023-04-04T13:00:13.871Z,99.90
2023-04-04T13:05:18.383Z,99.90
2023-04-04T13:10:21.412Z,99.90
2023-04-04T13:15:23.907Z,99.90
2023-04-04T13:20:26.774Z,99.90
2023-04-04T13:25:28.830Z,99.90
2023-04-04T13:30:31.568Z,99.90
2023-04-04T13:35:33.848Z,99.90
2023-04-04T13:40:35.893Z,99.90
2023-04-04T13:45:38.089Z,99.90
2023-04-04T13:50:43.506Z,99.90
2023-04-04T13:55:57.339Z,99.90
2023-04-04T14:01:07.176Z,99.90
2023-04-04T14:06:10.857Z,99.90
2023-04-04T14:11:14.115Z,99.90
2023-04-04T14:16:16.318Z,99.90
2023-04-04T14:21:18.646Z,99.90
2023-04-04T14:26:20.697Z,99.90
2023-04-04T14:31:22.675Z,99.90
2023-04-04T14:36:24.587Z,99.90
2023-04-04T14:41:26.683Z,99.90
2023-04-04T14:46:28.448Z,99.90
2023-04-04T14:51:32.163Z,99.90
2023-04-04T14:56:34.067Z,99.90
2023-04-04T15:01:36.118Z,99.20
2023-04-04T15:06:39.484Z,99.60
2023-04-04T15:11:41.398Z,98.90
2023-04-04T15:16:43.151Z,99.20
2023-04-04T15:21:45.788Z,98.70
2023-04-04T15:26:47.546Z,98.90
2023-04-04T15:31:49.969Z,97.40
2023-04-04T15:36:52.237Z,98.70
2023-04-04T15:41:54.000Z,98.50
2023-04-04T15:46:55.771Z,97.80
2023-04-04T15:51:57.548Z,99.40
2023-04-04T15:56:59.356Z,97.90
2023-04-04T16:02:01.365Z,98.40
2023-04-04T16:07:03.177Z,97.40
2023-04-04T16:12:05.088Z,98.40
2023-04-04T16:17:06.905Z,98.60
2023-04-04T16:22:09.748Z,98.10
2023-04-04T16:27:12.290Z,98.20
2023-04-04T16:32:14.204Z,98.80
2023-04-04T16:37:17.178Z,99.10
2023-04-04T16:42:19.444Z,99.40
2023-04-04T16:47:21.446Z,99.10
2023-04-04T16:52:23.330Z,99.20
2023-04-04T16:57:29.391Z,99.90
2023-04-04T17:02:31.755Z,99.30
2023-04-04T17:07:33.621Z,99.10
2023-04-04T17:12:36.174Z,99.20
2023-04-04T17:17:38.482Z,99.10
2023-04-04T17:22:40.344Z,99.90
2023-04-04T17:27:42.362Z,99.90
2023-04-04T17:32:44.179Z,99.90
2023-04-04T17:37:46.060Z,99.90
2023-04-04T17:42:47.802Z,99.90
2023-04-04T17:47:49.770Z,99.90
2023-04-04T17:52:51.590Z,99.90
2023-04-04T17:57:53.401Z,99.90
2023-04-04T18:02:55.344Z,99.90
2023-04-04T18:07:58.230Z,99.90
2023-04-04T18:13:00.051Z,99.90
2023-04-04T18:18:02.300Z,99.90
2023-04-04T18:23:04.525Z,99.90
2023-04-04T18:28:06.668Z,99.90
2023-04-04T18:33:08.647Z,99.90
2023-04-04T18:38:11.069Z,99.90
2023-04-04T18:43:13.429Z,99.90
2023-04-04T18:48:15.369Z,99.90
2023-04-04T18:53:17.326Z,99.90
2023-04-04T18:58:19.929Z,99.90
2023-04-04T19:03:22.835Z,99.90
2023-04-04T19:08:26.413Z,99.90
2023-04-04T19:13:28.246Z,99.90
2023-04-04T19:18:30.526Z,99.90
2023-04-04T19:23:33.497Z,99.90
2023-04-04T19:28:36.024Z,99.90
2023-04-04T19:33:38.604Z,99.90
2023-04-04T19:38:44.732Z,99.90
2023-04-04T19:43:47.623Z,99.90
2023-04-04T19:48:56.933Z,99.90
2023-04-04T19:54:00.011Z,99.90
2023-04-04T19:59:05.318Z,99.90
2023-04-04T20:04:10.367Z,99.90
2023-04-04T20:09:28.722Z,99.90
2023-04-04T20:14:30.548Z,99.90
2023-04-04T20:19:36.017Z,99.90
2023-04-04T20:24:39.387Z,99.90
2023-04-04T20:29:41.537Z,99.90
2023-04-04T20:34:49.748Z,99.90
2023-04-04T20:39:59.956Z,99.90
2023-04-04T20:45:14.065Z,99.90
2023-04-04T20:50:20.587Z,99.90
2023-04-04T20:55:25.480Z,99.90
2023-04-04T21:00:33.632Z,99.90
2023-04-04T21:05:38.807Z,99.90
2023-04-04T21:10:50.882Z,99.90
2023-04-04T21:15:58.839Z,99.90
2023-04-04T21:21:19.057Z,99.90
2023-04-04T21:26:33.418Z,99.90
2023-04-04T21:31:39.343Z,99.90
2023-04-04T21:36:41.817Z,99.90
2023-04-04T21:41:44.865Z,99.90
2023-04-04T21:46:46.729Z,99.90
2023-04-04T21:51:48.676Z,99.90
2023-04-04T21:56:50.545Z,99.90
2023-04-04T22:01:52.324Z,99.90
2023-04-04T22:06:54.072Z,99.90
2023-04-04T22:11:59.064Z,99.90
2023-04-04T22:17:03.028Z,99.90
2023-04-04T22:22:05.451Z,99.90
2023-04-04T22:27:07.356Z,99.90
2023-04-04T22:32:09.201Z,99.90
2023-04-04T22:37:10.986Z,99.90
2023-04-04T22:42:12.794Z,99.90
2023-04-04T22:47:15.582Z,99.90
2023-04-04T22:52:18.950Z,99.90
2023-04-04T22:57:20.863Z,99.90
2023-04-04T23:02:22.574Z,99.90
2023-04-04T23:07:26.574Z,99.90
2023-04-04T23:12:28.382Z,99.90
2023-04-04T23:17:34.033Z,99.90
2023-04-04T23:22:37.509Z,99.90
2023-04-04T23:27:40.142Z,99.90
2023-04-04T23:32:42.273Z,99.90
2023-04-04T23:37:44.236Z,99.90
2023-04-04T23:42:45.992Z,99.90
2023-04-04T23:47:47.884Z,99.90
2023-04-04T23:52:49.686Z,99.90
2023-04-04T23:57:52.195Z,99.90
